Branon, North Carolina
Current Conditions -  °F | °C
As of 4:54 PM on Saturday 25 Oct 2014 (Local Time) from KINT Reporting Station
Clear Clear  
Wind Chill: 72°   Ceiling: Unl
Heat Index: 72°   Visibility: 10mi
Dew Point: 29°   Wind: 7mph
Humidity: 20%   Direction: 250°WSW
Pressure: 29.93"   Gusts: NA
Location:  36.1267°N, 80.6582°W
Report Text: KINT 252054Z AUTO 25006KT 10SM CLR 22/M02 A2993 RMK AO2 SLP130 T02221017 56016
Loading
Personal Weather Stations






























Interactive Weather Map
Tropical Storm Tracking
New forecast layout! Learn more

10-Day Weather Forecast

Advertisements
Track Severe Weather on mobile